createdAt,value
2017-12-26T00:01:28.387Z,99.90
2017-12-26T00:03:58.795Z,99.90
2017-12-26T00:06:29.191Z,99.90
2017-12-26T00:09:00.831Z,99.90
2017-12-26T00:11:31.320Z,99.90
2017-12-26T00:14:01.828Z,99.90
2017-12-26T00:16:32.260Z,99.90
2017-12-26T00:19:02.695Z,99.90
2017-12-26T00:21:33.185Z,99.90
2017-12-26T00:24:03.540Z,99.90
2017-12-26T00:26:34.502Z,99.90
2017-12-26T00:29:05.075Z,99.90
2017-12-26T00:31:35.479Z,99.90
2017-12-26T00:34:07.486Z,99.90
2017-12-26T00:36:37.851Z,99.90
2017-12-26T00:39:08.613Z,99.90
2017-12-26T00:41:39.023Z,99.90
2017-12-26T00:44:10.331Z,99.90
2017-12-26T00:46:40.684Z,99.90
2017-12-26T00:49:11.877Z,99.90
2017-12-26T00:51:42.333Z,99.90
2017-12-26T00:54:12.743Z,99.90
2017-12-26T00:56:43.351Z,99.90
2017-12-26T00:59:13.860Z,99.90
2017-12-26T01:01:45.033Z,99.90
2017-12-26T01:04:15.390Z,99.90
2017-12-26T01:06:45.856Z,99.90
2017-12-26T01:09:17.419Z,99.90
2017-12-26T01:11:47.870Z,99.90
2017-12-26T01:14:18.680Z,99.90
2017-12-26T01:16:49.171Z,99.90
2017-12-26T01:19:19.620Z,99.90
2017-12-26T01:21:50.782Z,99.90
2017-12-26T01:24:21.175Z,99.90
2017-12-26T01:26:51.960Z,99.90
2017-12-26T01:29:22.382Z,99.90
2017-12-26T01:31:52.724Z,99.90
2017-12-26T01:34:23.212Z,99.90
2017-12-26T01:36:54.379Z,99.90
2017-12-26T01:39:24.784Z,99.90
2017-12-26T01:41:55.259Z,99.90
2017-12-26T01:44:26.063Z,99.90
2017-12-26T01:46:56.668Z,99.90
2017-12-26T01:49:27.955Z,99.90
2017-12-26T01:51:58.703Z,99.90
2017-12-26T01:54:29.223Z,99.90
2017-12-26T01:57:00.135Z,99.90
2017-12-26T01:59:31.386Z,99.90
2017-12-26T02:02:01.868Z,99.90
2017-12-26T02:04:32.495Z,99.90
2017-12-26T02:07:02.899Z,99.90
2017-12-26T02:09:33.370Z,99.90
2017-12-26T02:12:04.616Z,99.90
2017-12-26T02:14:36.374Z,99.60
2017-12-26T02:17:07.651Z,99.30
2017-12-26T02:19:38.297Z,99.30
2017-12-26T02:22:08.787Z,99.50
2017-12-26T02:27:16.003Z,99.30
2017-12-26T02:29:46.542Z,99.30
2017-12-26T02:32:17.582Z,99.40
2017-12-26T02:34:48.212Z,99.50
2017-12-26T02:37:18.747Z,99.50
2017-12-26T02:39:49.485Z,99.50
2017-12-26T02:42:20.364Z,99.60
2017-12-26T02:44:51.216Z,99.60
2017-12-26T02:47:22.631Z,99.90
2017-12-26T02:49:53.256Z,99.90
2017-12-26T02:52:23.748Z,99.90
2017-12-26T02:54:54.444Z,99.90
2017-12-26T02:57:25.412Z,99.90
2017-12-26T02:59:56.962Z,99.90
2017-12-26T03:02:28.697Z,99.90
2017-12-26T03:04:59.242Z,99.90
2017-12-26T03:07:30.611Z,99.90
2017-12-26T03:10:01.252Z,99.90
2017-12-26T03:12:32.064Z,99.90
2017-12-26T03:15:04.015Z,99.80
2017-12-26T03:17:35.615Z,99.90
2017-12-26T03:20:06.284Z,99.80
2017-12-26T03:22:36.864Z,99.80
2017-12-26T03:25:07.699Z,99.90
2017-12-26T03:27:38.822Z,99.90
2017-12-26T03:30:10.315Z,99.80
2017-12-26T03:32:41.420Z,99.80
2017-12-26T03:35:13.008Z,99.70
2017-12-26T03:37:43.828Z,99.70
2017-12-26T03:40:14.547Z,99.60
2017-12-26T03:42:45.510Z,99.10
2017-12-26T03:45:16.645Z,98.40
2017-12-26T03:47:47.371Z,98.80
2017-12-26T03:50:18.088Z,97.90
2017-12-26T03:52:49.515Z,97.30
2017-12-26T03:55:20.179Z,97.20
2017-12-26T03:57:51.187Z,97.40
2017-12-26T04:00:22.043Z,97.80
2017-12-26T04:02:54.066Z,98.20
2017-12-26T04:05:24.914Z,98.20
2017-12-26T04:07:55.919Z,98.60
2017-12-26T04:10:26.606Z,98.50
2017-12-26T04:12:58.068Z,97.70
2017-12-26T04:15:30.383Z,98.20
2017-12-26T04:18:01.418Z,98.20
2017-12-26T04:20:32.141Z,97.70
2017-12-26T04:23:03.003Z,97.50
2017-12-26T04:25:33.767Z,97.50
2017-12-26T04:28:04.700Z,97.80
2017-12-26T04:30:35.769Z,97.60
2017-12-26T04:33:07.595Z,97.90
2017-12-26T04:35:38.096Z,97.90
2017-12-26T04:38:08.564Z,97.80
2017-12-26T04:40:39.268Z,98.20
2017-12-26T04:43:10.157Z,98.00
2017-12-26T04:45:41.267Z,97.70
2017-12-26T04:48:11.932Z,97.70
2017-12-26T04:50:43.548Z,97.70
2017-12-26T04:53:14.416Z,97.70
2017-12-26T04:55:45.916Z,97.50
2017-12-26T04:58:16.988Z,97.50
2017-12-26T05:00:47.868Z,97.60
2017-12-26T05:03:18.661Z,97.30
2017-12-26T05:05:49.695Z,97.50
2017-12-26T05:08:20.360Z,98.00
2017-12-26T05:10:51.931Z,98.30
2017-12-26T05:13:22.738Z,98.30
2017-12-26T05:15:54.808Z,97.90
2017-12-26T05:18:26.436Z,97.70
2017-12-26T05:20:57.145Z,97.70
2017-12-26T05:23:28.023Z,97.40
2017-12-26T05:25:59.626Z,97.50
2017-12-26T05:28:30.962Z,97.50
2017-12-26T05:31:01.923Z,97.30
2017-12-26T05:33:33.134Z,97.60
2017-12-26T05:36:03.935Z,97.40
2017-12-26T05:38:35.664Z,97.40
2017-12-26T05:41:06.588Z,97.40
2017-12-26T05:43:37.296Z,97.10
2017-12-26T05:46:08.707Z,96.90
2017-12-26T05:48:39.687Z,97.00
2017-12-26T05:51:10.577Z,96.80
2017-12-26T05:53:41.358Z,97.40
2017-12-26T05:56:12.111Z,97.30
2017-12-26T05:58:42.703Z,96.90
2017-12-26T06:01:14.203Z,97.30
2017-12-26T06:03:45.297Z,97.30
2017-12-26T06:06:16.864Z,97.20
2017-12-26T06:08:47.851Z,97.20
2017-12-26T06:11:18.735Z,96.80
2017-12-26T06:13:50.403Z,96.90
2017-12-26T06:16:21.577Z,96.90
2017-12-26T06:18:52.337Z,96.70
2017-12-26T06:21:23.071Z,97.00
2017-12-26T06:23:53.991Z,97.20
2017-12-26T06:26:24.763Z,97.10
2017-12-26T06:28:56.271Z,97.00
2017-12-26T06:31:27.231Z,96.90
2017-12-26T06:33:58.596Z,97.10
2017-12-26T06:36:29.443Z,97.10
2017-12-26T06:39:00.984Z,96.90
2017-12-26T06:41:31.964Z,96.90
2017-12-26T06:44:03.010Z,96.60
2017-12-26T06:46:34.075Z,96.30
2017-12-26T06:49:05.052Z,96.40
2017-12-26T06:51:37.147Z,96.10
2017-12-26T06:54:07.915Z,96.00
2017-12-26T06:56:38.860Z,96.20
2017-12-26T06:59:09.750Z,96.40
2017-12-26T07:01:40.669Z,95.80
2017-12-26T07:04:12.758Z,95.40
2017-12-26T07:06:43.646Z,95.40
2017-12-26T07:09:14.530Z,94.80
2017-12-26T07:11:45.505Z,94.40
2017-12-26T07:14:16.391Z,94.40
2017-12-26T07:16:48.744Z,94.10
2017-12-26T07:19:20.134Z,94.10
2017-12-26T07:21:56.270Z,94.00
2017-12-26T07:24:28.049Z,94.80
2017-12-26T07:26:59.182Z,94.70
2017-12-26T07:29:30.128Z,94.90
2017-12-26T07:32:01.143Z,95.00
2017-12-26T07:34:33.188Z,95.60
2017-12-26T07:37:04.618Z,95.50
2017-12-26T07:39:35.599Z,95.90
2017-12-26T07:42:07.478Z,95.30
2017-12-26T07:44:38.548Z,95.30
2017-12-26T07:47:09.887Z,94.80
2017-12-26T07:49:40.759Z,94.70
2017-12-26T07:52:11.741Z,94.80
2017-12-26T07:54:43.647Z,94.30
2017-12-26T07:57:14.575Z,94.30
2017-12-26T07:59:45.707Z,93.60
2017-12-26T08:02:16.675Z,93.80
2017-12-26T08:04:48.039Z,94.10
2017-12-26T08:07:18.979Z,93.50
2017-12-26T08:09:50.700Z,94.10
2017-12-26T08:12:21.756Z,94.10
2017-12-26T08:14:53.667Z,93.90
2017-12-26T08:17:25.900Z,94.00
2017-12-26T08:19:56.846Z,93.90
2017-12-26T08:22:27.785Z,94.00
2017-12-26T08:24:59.050Z,93.90
2017-12-26T08:27:29.983Z,93.70
2017-12-26T08:30:01.961Z,94.30
2017-12-26T08:32:33.626Z,94.70
2017-12-26T08:35:05.091Z,94.70
2017-12-26T08:37:35.988Z,94.90
2017-12-26T08:40:07.044Z,95.20
2017-12-26T08:42:38.914Z,95.60
2017-12-26T08:45:09.893Z,95.60
2017-12-26T08:47:41.284Z,95.90
2017-12-26T08:50:13.139Z,96.00
2017-12-26T08:52:44.813Z,96.20
2017-12-26T08:55:16.652Z,96.40
2017-12-26T08:57:48.387Z,96.50
2017-12-26T09:00:19.711Z,96.50
2017-12-26T09:02:50.650Z,96.20
2017-12-26T09:05:22.989Z,96.50
2017-12-26T09:07:53.892Z,96.60
2017-12-26T09:10:24.927Z,96.70
2017-12-26T09:12:55.816Z,96.80
2017-12-26T09:15:26.791Z,96.70
2017-12-26T09:17:58.141Z,96.80
2017-12-26T09:20:29.143Z,96.90
2017-12-26T09:23:00.230Z,96.90
2017-12-26T09:25:31.256Z,96.90
2017-12-26T09:28:02.231Z,96.80
2017-12-26T09:30:36.267Z,96.70
2017-12-26T09:33:07.408Z,96.70
2017-12-26T09:35:38.751Z,96.50
2017-12-26T09:38:10.447Z,96.80
2017-12-26T09:40:41.550Z,96.80
2017-12-26T09:43:13.278Z,97.00
2017-12-26T09:45:44.175Z,97.00
2017-12-26T09:48:15.526Z,97.20
2017-12-26T09:50:46.490Z,97.30
2017-12-26T09:53:17.575Z,97.50
2017-12-26T09:55:49.287Z,97.80
2017-12-26T09:58:20.301Z,97.80
2017-12-26T10:00:51.722Z,97.90
2017-12-26T10:03:23.487Z,98.20
2017-12-26T10:05:54.748Z,98.20
2017-12-26T10:08:25.561Z,98.30
2017-12-26T10:10:57.243Z,98.20
2017-12-26T10:13:28.226Z,98.20
2017-12-26T10:15:59.243Z,98.20
2017-12-26T10:18:30.548Z,98.20
2017-12-26T10:21:02.379Z,98.30
2017-12-26T10:23:34.045Z,98.40
2017-12-26T10:26:05.846Z,98.50
2017-12-26T10:28:36.780Z,98.50
2017-12-26T10:31:07.919Z,98.60
2017-12-26T10:33:38.855Z,98.70
2017-12-26T10:36:10.371Z,98.80
2017-12-26T10:38:42.232Z,98.80
2017-12-26T10:41:13.991Z,98.90
2017-12-26T10:43:44.828Z,98.90
2017-12-26T10:46:16.661Z,98.90
2017-12-26T10:48:47.985Z,98.90
2017-12-26T10:51:19.940Z,99.00
2017-12-26T10:53:50.954Z,98.90
2017-12-26T10:56:22.684Z,99.10
2017-12-26T10:58:53.614Z,99.10
2017-12-26T11:01:25.044Z,99.00
2017-12-26T11:03:56.189Z,99.10
2017-12-26T11:06:27.408Z,99.10
2017-12-26T11:08:58.493Z,99.30
2017-12-26T11:11:29.528Z,99.40
2017-12-26T11:14:00.528Z,99.60
2017-12-26T11:16:32.039Z,99.70
2017-12-26T11:19:03.172Z,99.80
2017-12-26T11:21:34.624Z,99.90
2017-12-26T11:24:06.263Z,99.90
2017-12-26T11:26:38.012Z,99.90
2017-12-26T11:29:09.667Z,99.90
2017-12-26T11:31:41.680Z,99.90
2017-12-26T11:34:13.192Z,99.90
2017-12-26T11:36:45.062Z,99.90
2017-12-26T11:39:16.760Z,99.90
2017-12-26T11:41:49.142Z,99.90
2017-12-26T11:44:20.907Z,99.90
2017-12-26T11:46:53.391Z,99.90
2017-12-26T11:49:25.371Z,99.90
2017-12-26T11:51:57.026Z,99.90
2017-12-26T11:54:28.901Z,99.80
2017-12-26T11:57:00.542Z,99.70
2017-12-26T11:59:32.415Z,99.60
2017-12-26T12:02:04.463Z,99.50
2017-12-26T12:04:37.005Z,99.40
2017-12-26T12:07:09.395Z,99.20
2017-12-26T12:09:41.004Z,99.20
2017-12-26T12:12:12.558Z,99.20
2017-12-26T12:14:44.008Z,99.30
2017-12-26T12:17:15.787Z,99.10
2017-12-26T12:19:47.675Z,99.00
2017-12-26T12:22:18.807Z,99.10
2017-12-26T12:24:49.843Z,99.10
2017-12-26T12:27:21.305Z,99.10
2017-12-26T12:29:53.294Z,99.10
2017-12-26T12:32:24.720Z,99.00
2017-12-26T12:34:55.780Z,99.10
2017-12-26T12:37:27.237Z,99.00
2017-12-26T12:39:59.281Z,99.00
2017-12-26T12:42:30.268Z,99.10
2017-12-26T12:45:01.664Z,99.10
2017-12-26T12:47:33.041Z,99.00
2017-12-26T12:50:04.416Z,99.10
2017-12-26T12:52:37.148Z,99.20
2017-12-26T12:55:08.833Z,99.20
2017-12-26T12:57:39.868Z,99.30
2017-12-26T13:00:10.841Z,99.00
2017-12-26T13:02:43.617Z,98.50
2017-12-26T13:05:14.552Z,98.70
2017-12-26T13:07:45.435Z,98.70
2017-12-26T13:10:16.324Z,98.70
2017-12-26T13:12:47.382Z,98.80
2017-12-26T13:15:19.524Z,99.00
2017-12-26T13:17:51.070Z,99.00
2017-12-26T13:20:23.266Z,99.10
2017-12-26T13:22:55.259Z,98.90
2017-12-26T13:25:26.256Z,98.90
2017-12-26T13:27:58.186Z,99.00
2017-12-26T13:30:29.936Z,99.10
2017-12-26T13:33:01.724Z,99.10
2017-12-26T13:35:33.587Z,99.20
2017-12-26T13:38:04.581Z,99.10
2017-12-26T13:40:36.420Z,99.00
2017-12-26T13:43:08.157Z,99.00
2017-12-26T13:45:41.040Z,99.00
2017-12-26T13:48:13.950Z,99.30
2017-12-26T13:50:45.475Z,99.00
2017-12-26T13:53:18.465Z,99.10
2017-12-26T13:55:49.749Z,99.20
2017-12-26T13:58:22.093Z,99.30
2017-12-26T14:00:54.973Z,99.30
2017-12-26T14:03:26.382Z,99.40
2017-12-26T14:05:57.513Z,99.50
2017-12-26T14:08:28.757Z,99.60
2017-12-26T14:10:59.965Z,99.50
2017-12-26T14:13:31.995Z,99.70
2017-12-26T14:16:04.260Z,99.90
2017-12-26T14:18:36.155Z,99.60
2017-12-26T14:21:08.014Z,99.50
2017-12-26T14:23:39.809Z,99.50
2017-12-26T14:26:10.944Z,99.50
2017-12-26T14:28:42.295Z,99.50
2017-12-26T14:31:14.087Z,99.50
2017-12-26T14:33:45.248Z,99.50
2017-12-26T14:36:16.627Z,99.30
2017-12-26T14:38:48.358Z,99.30
2017-12-26T14:41:20.140Z,98.90
2017-12-26T14:43:51.183Z,98.90
2017-12-26T14:46:22.950Z,98.80
2017-12-26T14:48:53.907Z,98.90
2017-12-26T14:51:26.047Z,98.80
2017-12-26T14:53:57.536Z,98.60
2017-12-26T14:56:29.136Z,98.70
2017-12-26T14:59:00.782Z,98.70
2017-12-26T15:01:32.843Z,98.70
2017-12-26T15:04:05.955Z,99.10
2017-12-26T15:06:39.365Z,99.10
2017-12-26T15:09:11.703Z,99.10
2017-12-26T15:11:43.309Z,99.10
2017-12-26T15:14:14.922Z,99.10
2017-12-26T15:16:48.527Z,99.20
2017-12-26T15:19:20.136Z,99.20
2017-12-26T15:21:51.720Z,99.20
2017-12-26T15:24:23.341Z,99.30
2017-12-26T15:26:55.047Z,99.30
2017-12-26T15:29:27.636Z,99.10
2017-12-26T15:32:00.204Z,99.20
2017-12-26T15:34:33.494Z,99.30
2017-12-26T15:37:06.922Z,99.40
2017-12-26T15:39:38.660Z,99.40
2017-12-26T15:42:11.047Z,99.50
2017-12-26T15:44:42.746Z,99.50
2017-12-26T15:47:14.722Z,99.70
2017-12-26T15:49:46.306Z,99.80
2017-12-26T15:52:18.666Z,99.90
2017-12-26T15:54:50.714Z,99.90
2017-12-26T15:57:24.210Z,99.90
2017-12-26T15:59:56.615Z,99.90
2017-12-26T16:02:28.188Z,99.90
2017-12-26T16:04:59.792Z,99.90
2017-12-26T16:07:31.474Z,99.90
2017-12-26T16:10:03.898Z,99.90
2017-12-26T16:12:37.419Z,99.90
2017-12-26T16:15:08.949Z,99.90
2017-12-26T16:17:40.794Z,99.90
2017-12-26T16:20:12.446Z,99.90
2017-12-26T16:22:44.038Z,99.90
2017-12-26T16:25:15.613Z,99.90
2017-12-26T16:27:47.181Z,99.90
2017-12-26T16:30:19.226Z,99.90
2017-12-26T16:32:51.556Z,99.90
2017-12-26T16:35:23.996Z,99.90
2017-12-26T16:37:56.501Z,99.90
2017-12-26T16:40:27.934Z,99.90
2017-12-26T16:42:59.772Z,99.90
2017-12-26T16:45:31.810Z,99.90
2017-12-26T16:48:03.122Z,99.90
2017-12-26T16:50:34.164Z,99.90
2017-12-26T16:53:05.111Z,99.90
2017-12-26T16:55:35.977Z,99.90
2017-12-26T16:58:07.662Z,99.90
2017-12-26T17:00:39.051Z,99.90
2017-12-26T17:03:10.051Z,99.90
2017-12-26T17:05:40.931Z,99.90
2017-12-26T17:08:11.803Z,99.90
2017-12-26T17:10:43.528Z,99.90
2017-12-26T17:13:14.771Z,99.90
2017-12-26T17:15:45.669Z,99.90
2017-12-26T17:18:16.575Z,99.90
2017-12-26T17:20:48.240Z,99.90
2017-12-26T17:23:20.027Z,99.90
2017-12-26T17:25:51.058Z,99.90
2017-12-26T17:28:21.811Z,99.90
2017-12-26T17:30:52.948Z,99.90
2017-12-26T17:33:23.739Z,99.90
2017-12-26T17:35:54.555Z,99.90
2017-12-26T17:38:25.891Z,99.90
2017-12-26T17:40:56.484Z,99.90
2017-12-26T17:43:27.975Z,99.90
2017-12-26T17:45:59.177Z,99.90
2017-12-26T17:48:30.029Z,99.90
2017-12-26T17:51:00.716Z,99.90
2017-12-26T17:53:31.376Z,99.90
2017-12-26T17:56:01.888Z,99.90
2017-12-26T17:58:33.479Z,99.80
2017-12-26T18:01:04.680Z,99.80
2017-12-26T18:03:35.552Z,99.80
2017-12-26T18:06:06.547Z,99.90
2017-12-26T18:08:37.607Z,99.80
2017-12-26T18:11:09.151Z,99.90
2017-12-26T18:13:41.270Z,99.90
2017-12-26T18:16:11.868Z,99.90
2017-12-26T18:18:43.651Z,99.90
2017-12-26T18:21:14.345Z,99.90
2017-12-26T18:23:46.019Z,99.90
2017-12-26T18:26:16.885Z,99.90
2017-12-26T18:31:20.570Z,99.90
2017-12-26T18:33:51.998Z,99.90
2017-12-26T18:36:22.783Z,99.90
2017-12-26T18:38:53.617Z,99.90
2017-12-26T18:41:24.326Z,99.90
2017-12-26T18:43:55.790Z,99.90
2017-12-26T18:46:26.406Z,99.90
2017-12-26T18:48:58.100Z,99.90
2017-12-26T18:51:28.671Z,99.90
2017-12-26T18:53:59.278Z,99.90
2017-12-26T18:56:30.316Z,99.90
2017-12-26T18:59:01.192Z,99.90
2017-12-26T19:01:32.514Z,99.90
2017-12-26T19:04:03.104Z,99.90
2017-12-26T19:06:33.542Z,99.90
2017-12-26T19:09:03.954Z,99.90
2017-12-26T19:11:34.382Z,99.90
2017-12-26T19:14:05.243Z,99.90
2017-12-26T19:16:35.635Z,99.90
2017-12-26T19:19:06.398Z,99.90
2017-12-26T19:21:36.791Z,99.90
2017-12-26T19:24:07.266Z,99.90
2017-12-26T19:26:37.638Z,99.90
2017-12-26T19:29:08.086Z,99.90
2017-12-26T19:31:38.888Z,99.90
2017-12-26T19:34:10.123Z,99.90
2017-12-26T19:36:40.506Z,99.90
2017-12-26T19:39:10.991Z,99.90
2017-12-26T19:41:42.174Z,99.90
2017-12-26T19:44:12.981Z,99.90
2017-12-26T19:46:43.516Z,99.90
2017-12-26T19:49:14.287Z,99.90
2017-12-26T19:51:44.667Z,99.90
2017-12-26T19:54:15.108Z,99.90
2017-12-26T19:56:45.505Z,99.90
2017-12-26T19:59:16.709Z,99.90
2017-12-26T20:01:47.577Z,99.90
2017-12-26T20:04:18.019Z,99.90
2017-12-26T20:06:49.235Z,99.90
2017-12-26T20:09:19.678Z,99.90
2017-12-26T20:11:50.152Z,99.90
2017-12-26T20:14:20.582Z,99.90
2017-12-26T20:16:51.198Z,99.90
2017-12-26T20:19:21.635Z,99.90
2017-12-26T20:21:52.019Z,99.90
2017-12-26T20:24:23.186Z,99.90
2017-12-26T20:26:53.583Z,99.90
2017-12-26T20:29:23.981Z,99.90
2017-12-26T20:31:54.790Z,99.90
2017-12-26T20:34:25.187Z,99.90
2017-12-26T20:36:57.028Z,99.90
2017-12-26T20:39:27.487Z,99.90
2017-12-26T20:41:57.886Z,99.90
2017-12-26T20:44:28.227Z,99.90
2017-12-26T20:46:59.481Z,99.90
2017-12-26T20:49:30.363Z,99.90
2017-12-26T20:52:00.743Z,99.90
2017-12-26T20:54:31.959Z,99.90
2017-12-26T20:57:02.310Z,99.90
2017-12-26T20:59:33.499Z,99.90
2017-12-26T21:02:04.259Z,99.90
2017-12-26T21:04:34.718Z,99.90
2017-12-26T21:07:05.486Z,99.90
2017-12-26T21:09:35.935Z,99.90
2017-12-26T21:12:06.323Z,99.90
2017-12-26T21:14:36.719Z,99.90
2017-12-26T21:17:07.871Z,99.90
2017-12-26T21:19:39.534Z,99.90
2017-12-26T21:22:09.862Z,99.90
2017-12-26T21:24:40.325Z,99.90
2017-12-26T21:27:10.803Z,99.90
2017-12-26T21:29:41.963Z,99.90
2017-12-26T21:32:12.763Z,99.90
2017-12-26T21:34:43.241Z,99.90
2017-12-26T21:37:14.027Z,99.90
2017-12-26T21:39:44.494Z,99.90
2017-12-26T21:42:14.822Z,99.90
2017-12-26T21:44:45.221Z,99.90
2017-12-26T21:47:16.408Z,99.90
2017-12-26T21:49:46.890Z,99.90
2017-12-26T21:52:18.046Z,99.90
2017-12-26T21:54:48.650Z,99.90
2017-12-26T21:57:19.066Z,99.90
2017-12-26T21:59:49.564Z,99.90
2017-12-26T22:02:19.996Z,99.90
2017-12-26T22:04:50.431Z,99.90
2017-12-26T22:07:21.102Z,99.90
2017-12-26T22:09:52.257Z,99.90
2017-12-26T22:12:22.754Z,99.90
2017-12-26T22:14:53.170Z,99.90
2017-12-26T22:17:23.578Z,99.90
2017-12-26T22:19:54.219Z,99.90
2017-12-26T22:22:24.621Z,99.90
2017-12-26T22:24:55.326Z,99.90
2017-12-26T22:27:26.503Z,99.90
2017-12-26T22:29:56.915Z,99.90
2017-12-26T22:32:27.330Z,99.90
2017-12-26T22:34:57.729Z,99.90
2017-12-26T22:37:28.611Z,99.90
2017-12-26T22:39:59.050Z,99.90
2017-12-26T22:42:29.542Z,99.90
2017-12-26T22:45:00.806Z,99.90
2017-12-26T22:47:31.232Z,99.90
2017-12-26T22:50:02.137Z,99.90
2017-12-26T22:52:33.312Z,99.90
2017-12-26T22:55:03.990Z,99.90
2017-12-26T22:57:34.426Z,99.90
2017-12-26T23:00:04.818Z,99.90
2017-12-26T23:02:35.212Z,99.90
2017-12-26T23:05:05.573Z,99.90
2017-12-26T23:07:36.681Z,99.90
2017-12-26T23:10:07.041Z,99.90
2017-12-26T23:12:37.459Z,99.90
2017-12-26T23:15:12.795Z,99.90
2017-12-26T23:17:48.319Z,99.90
2017-12-26T23:20:24.067Z,99.90
2017-12-26T23:23:00.355Z,99.90
2017-12-26T23:25:35.898Z,99.90
2017-12-26T23:28:11.426Z,99.90
2017-12-26T23:30:46.734Z,99.90
2017-12-26T23:33:22.491Z,99.90
2017-12-26T23:35:58.678Z,99.90
2017-12-26T23:38:34.403Z,99.90
2017-12-26T23:41:09.944Z,99.90
2017-12-26T23:43:45.505Z,99.90
2017-12-26T23:46:21.706Z,99.90
2017-12-26T23:48:57.263Z,99.90
2017-12-26T23:51:32.883Z,99.90
2017-12-26T23:54:08.162Z,99.90
2017-12-26T23:56:43.463Z,99.90
2017-12-26T23:59:30.644Z,99.90
